Ridgewood, New York
Current Conditions -  °F | °C
As of 12:51 PM on Friday 28 Nov 2014 (Local Time) from KLGA Reporting Station
Overcast Overcast  
Wind Chill: 26°   Ceiling: 4300
Heat Index: 36°   Visibility: 10mi
Dew Point: 21°   Wind: 16mph
Humidity: 55%   Direction: 300°WNW
Pressure: 30.15"   Gusts: 25mph
Location:  40.7°N, 73.9°W
Report Text: KLGA 281751Z 30014G22KT 10SM OVC043 02/M06 A3015 RMK AO2 SLP210 T00221061 10028 20000 58008
Loading
Personal Weather Stations






























Interactive Weather Map New forecast layout! Learn more

10-Day Weather Forecast

Advertisements
Track Severe Weather on mobile